Time;durP1;ratioP1;P1;durP2;ratioP2;P2;SDS_P1;SDS_P2;PMS_P1;PMS_P2;Temp;Humidity;BMP_temperature;BMP_pressure;BME280_temperature;BME280_humidity;BME280_pressure;Samples;Min_cycle;Max_cycle;Signal;HPM_P1;HPM_P2
2023/05/14 00:00:27;;;;;;;8.90;7.57;;;;;;;;;;5015740;28;20458;-68
2023/05/14 00:02:54;;;;;;;12.37;8.47;;;;;;;;;;5015837;28;20784;-68
2023/05/14 00:05:22;;;;;;;9.60;8.03;;;;;;;;;;5015950;28;20441;-68
2023/05/14 00:07:49;;;;;;;9.93;9.03;;;;;;;;;;5015914;28;20462;-68
2023/05/14 00:10:19;;;;;;;9.10;8.20;;;;;;;;;;5015466;28;20495;-68
2023/05/14 00:12:46;;;;;;;10.83;9.60;;;;;;;;;;5015383;28;20452;-68
2023/05/14 00:15:13;;;;;;;9.60;8.60;;;;;;;;;;5015951;28;20481;-68
2023/05/14 00:17:41;;;;;;;11.47;9.17;;;;;;;;;;5015598;28;20547;-68
2023/05/14 00:20:10;;;;;;;10.03;9.23;;;;;;;;;;5015646;28;20443;-68
2023/05/14 00:22:38;;;;;;;17.23;9.30;;;;;;;;;;5015230;28;20450;-68
2023/05/14 00:25:06;;;;;;;10.27;9.27;;;;;;;;;;5015909;28;20454;-68
2023/05/14 00:27:34;;;;;;;12.70;9.30;;;;;;;;;;5015518;28;20452;-68
2023/05/14 00:30:02;;;;;;;10.53;9.43;;;;;;;;;;5015479;28;20447;-68
2023/05/14 00:32:29;;;;;;;14.80;11.13;;;;;;;;;;5015058;28;20454;-68
2023/05/14 00:34:56;;;;;;;11.90;10.03;;;;;;;;;;5015020;28;20484;-68
2023/05/14 00:37:23;;;;;;;10.80;9.63;;;;;;;;;;5014657;28;20485;-68
2023/05/14 00:39:50;;;;;;;12.80;9.93;;;;;;;;;;5014952;28;20437;-68
2023/05/14 00:42:17;;;;;;;10.53;9.63;;;;;;;;;;5015147;28;20571;-68
2023/05/14 00:44:46;;;;;;;11.43;10.23;;;;;;;;;;5015150;28;20450;-68
2023/05/14 00:47:13;;;;;;;11.67;10.57;;;;;;;;;;5015027;28;20460;-69
2023/05/14 00:49:40;;;;;;;11.80;9.97;;;;;;;;;;5015897;28;20450;-68
2023/05/14 00:52:08;;;;;;;11.33;10.10;;;;;;;;;;5015005;28;20452;-69
2023/05/14 00:54:35;;;;;;;11.40;10.30;;;;;;;;;;5014639;28;20528;-68
2023/05/14 00:57:03;;;;;;;11.77;10.70;;;;;;;;;;5015350;28;20455;-69
2023/05/14 00:59:31;;;;;;;12.47;11.27;;;;;;;;;;5014832;28;20457;-69
2023/05/14 01:01:59;;;;;;;12.70;11.00;;;;;;;;;;5014767;28;20446;-69
2023/05/14 01:04:27;;;;;;;11.30;10.20;;;;;;;;;;5014763;28;20456;-69
2023/05/14 01:06:56;;;;;;;15.00;10.90;;;;;;;;;;5013935;28;20461;-69
2023/05/14 01:09:27;;;;;;;11.93;10.73;;;;;;;;;;5014308;28;20439;-69
2023/05/14 01:11:58;;;;;;;11.73;10.63;;;;;;;;;;5014903;28;20439;-69
2023/05/14 01:14:28;;;;;;;11.67;10.20;;;;;;;;;;5014604;28;20564;-69
2023/05/14 01:16:58;;;;;;;12.03;10.83;;;;;;;;;;5014343;28;20437;-69
2023/05/14 01:19:34;;;;;;;11.03;9.90;;;;;;;;;;5014454;28;20441;-69
2023/05/14 01:22:02;;;;;;;12.20;9.63;;;;;;;;;;5014646;28;20507;-69
2023/05/14 01:24:29;;;;;;;11.23;10.10;;;;;;;;;;5014426;28;20450;-69
2023/05/14 01:26:59;;;;;;;10.33;9.40;;;;;;;;;;5014417;28;20445;-69
2023/05/14 01:29:27;;;;;;;10.30;9.40;;;;;;;;;;5013978;28;20445;-69
2023/05/14 01:31:56;;;;;;;12.10;10.70;;;;;;;;;;5014866;28;20466;-69
2023/05/14 01:34:24;;;;;;;10.57;9.43;;;;;;;;;;5014093;28;20833;-69
2023/05/14 01:36:52;;;;;;;10.10;9.30;;;;;;;;;;5014049;28;20453;-69
2023/05/14 01:39:21;;;;;;;10.53;8.90;;;;;;;;;;5014362;28;20433;-69
2023/05/14 01:41:49;;;;;;;10.40;9.30;;;;;;;;;;5013877;28;20446;-69
2023/05/14 01:44:16;;;;;;;10.40;9.40;;;;;;;;;;5014363;28;20826;-69
2023/05/14 01:46:43;;;;;;;10.50;9.50;;;;;;;;;;5014424;28;20455;-69
2023/05/14 01:49:11;;;;;;;10.30;9.13;;;;;;;;;;5014006;28;20449;-68
2023/05/14 01:51:38;;;;;;;10.53;9.57;;;;;;;;;;5014007;28;20449;-69
2023/05/14 01:54:05;;;;;;;9.30;8.40;;;;;;;;;;5013832;28;20484;-68
2023/05/14 01:56:33;;;;;;;12.90;9.33;;;;;;;;;;5013960;28;20771;-69
2023/05/14 01:59:01;;;;;;;10.50;9.53;;;;;;;;;;5013893;28;20449;-69
2023/05/14 02:01:28;;;;;;;10.03;9.10;;;;;;;;;;5014521;28;20812;-68
2023/05/14 02:03:55;;;;;;;10.57;8.30;;;;;;;;;;5013770;28;20457;-69
2023/05/14 02:06:23;;;;;;;11.13;8.60;;;;;;;;;;5013416;28;20456;-69
2023/05/14 02:08:50;;;;;;;10.53;9.10;;;;;;;;;;5013893;28;20450;-68
2023/05/14 02:11:17;;;;;;;10.57;8.50;;;;;;;;;;5013845;28;20443;-68
2023/05/14 02:13:45;;;;;;;12.50;9.13;;;;;;;;;;5013493;28;20440;-68
2023/05/14 02:16:13;;;;;;;9.73;8.90;;;;;;;;;;5013570;28;20450;-68
2023/05/14 02:18:40;;;;;;;11.63;8.37;;;;;;;;;;5013579;28;20447;-68
2023/05/14 02:21:07;;;;;;;10.77;9.10;;;;;;;;;;5013652;28;20453;-68
2023/05/14 02:23:34;;;;;;;9.70;8.70;;;;;;;;;;5013536;28;20444;-69
2023/05/14 02:26:01;;;;;;;10.93;9.87;;;;;;;;;;5013588;28;20454;-68
2023/05/14 02:28:28;;;;;;;10.50;8.73;;;;;;;;;;5013479;28;20448;-69
2023/05/14 02:31:00;;;;;;;10.50;9.50;;;;;;;;;;5013549;28;20453;-70
2023/05/14 02:33:27;;;;;;;9.83;8.67;;;;;;;;;;5013432;28;20921;-69
2023/05/14 02:35:55;;;;;;;9.83;8.93;;;;;;;;;;5013405;28;20483;-68
2023/05/14 02:38:23;;;;;;;9.80;8.90;;;;;;;;;;5013476;28;20479;-68
2023/05/14 02:40:50;;;;;;;10.33;9.43;;;;;;;;;;5013454;28;20534;-68
2023/05/14 02:43:17;;;;;;;10.80;9.70;;;;;;;;;;5013202;28;20444;-68
2023/05/14 02:45:44;;;;;;;12.50;9.80;;;;;;;;;;5013151;28;20942;-68
2023/05/14 02:48:13;;;;;;;11.47;10.07;;;;;;;;;;5013144;28;20451;-68
2023/05/14 02:50:40;;;;;;;10.77;9.87;;;;;;;;;;5013337;28;20448;-68
2023/05/14 02:53:07;;;;;;;12.13;9.53;;;;;;;;;;5013816;28;20450;-68
2023/05/14 02:55:34;;;;;;;11.43;10.30;;;;;;;;;;5012905;28;20487;-68
2023/05/14 02:58:02;;;;;;;11.43;10.40;;;;;;;;;;5013067;28;20451;-67
2023/05/14 03:00:29;;;;;;;12.60;11.40;;;;;;;;;;5013312;28;20786;-67
2023/05/14 03:02:56;;;;;;;10.80;9.70;;;;;;;;;;5013242;28;20483;-68
2023/05/14 03:05:25;;;;;;;10.00;9.10;;;;;;;;;;5013475;28;20455;-68
2023/05/14 03:07:52;;;;;;;17.97;10.90;;;;;;;;;;5013690;28;20459;-67
2023/05/14 03:10:20;;;;;;;12.30;11.00;;;;;;;;;;5013395;28;20448;-68
2023/05/14 03:12:47;;;;;;;11.93;10.73;;;;;;;;;;5012892;28;20938;-68
2023/05/14 03:15:14;;;;;;;11.20;10.30;;;;;;;;;;5013027;28;20813;-68
2023/05/14 03:17:41;;;;;;;12.23;11.13;;;;;;;;;;5012920;28;20447;-67
2023/05/14 03:20:09;;;;;;;11.40;10.50;;;;;;;;;;5013338;28;20439;-68
2023/05/14 03:22:38;;;;;;;12.63;11.43;;;;;;;;;;5013129;28;20451;-68
2023/05/14 03:25:05;;;;;;;13.57;12.00;;;;;;;;;;5012754;28;21044;-68
2023/05/14 03:27:33;;;;;;;11.17;10.27;;;;;;;;;;5012763;28;20455;-68
2023/05/14 03:30:00;;;;;;;12.30;11.13;;;;;;;;;;5016014;28;20802;-68
2023/05/14 03:32:27;;;;;;;13.40;12.17;;;;;;;;;;5017054;28;20852;-67
2023/05/14 03:34:55;;;;;;;13.73;10.83;;;;;;;;;;5016073;28;20491;-68
2023/05/14 03:37:22;;;;;;;12.53;11.33;;;;;;;;;;5015973;28;20550;-68
2023/05/14 03:39:50;;;;;;;13.57;11.73;;;;;;;;;;5015993;28;20439;-68
2023/05/14 03:42:17;;;;;;;12.23;11.13;;;;;;;;;;5016574;28;20805;-67
2023/05/14 03:44:45;;;;;;;13.43;12.13;;;;;;;;;;5016283;28;20777;-67
2023/05/14 03:47:12;;;;;;;16.40;11.90;;;;;;;;;;5016382;28;20452;-66
2023/05/14 03:49:39;;;;;;;15.07;13.40;;;;;;;;;;5016174;28;20445;-67
2023/05/14 03:52:06;;;;;;;15.50;12.63;;;;;;;;;;5013064;28;20448;-68
2023/05/14 03:54:33;;;;;;;13.77;12.50;;;;;;;;;;5015732;28;20447;-68
2023/05/14 03:57:02;;;;;;;14.63;13.10;;;;;;;;;;5015995;28;20451;-67
2023/05/14 03:59:29;;;;;;;15.60;12.50;;;;;;;;;;5015735;28;20448;-68
2023/05/14 04:01:57;;;;;;;14.87;13.63;;;;;;;;;;5015523;28;20534;-67
2023/05/14 04:04:24;;;;;;;15.83;14.40;;;;;;;;;;5015450;28;20443;-67
2023/05/14 04:06:51;;;;;;;13.70;12.40;;;;;;;;;;5015556;28;20972;-67
2023/05/14 04:09:18;;;;;;;14.43;12.77;;;;;;;;;;5015263;28;20454;-68
2023/05/14 04:11:45;;;;;;;13.40;12.10;;;;;;;;;;5015399;28;20481;-68
2023/05/14 04:14:14;;;;;;;14.63;12.80;;;;;;;;;;5015744;28;20520;-68
2023/05/14 04:16:41;;;;;;;14.70;13.20;;;;;;;;;;5015656;28;20483;-68
2023/05/14 04:19:08;;;;;;;17.67;13.67;;;;;;;;;;5015691;28;20453;-68
2023/05/14 04:21:35;;;;;;;14.20;12.80;;;;;;;;;;5015036;28;21033;-67
2023/05/14 04:24:02;;;;;;;14.83;13.53;;;;;;;;;;5015256;28;20458;-67
2023/05/14 04:26:30;;;;;;;16.23;12.73;;;;;;;;;;5015361;28;20570;-67
2023/05/14 04:29:01;;;;;;;17.23;13.33;;;;;;;;;;5014982;28;20452;-67
2023/05/14 04:31:30;;;;;;;20.60;13.30;;;;;;;;;;5015296;28;20436;-67
2023/05/14 04:33:57;;;;;;;14.57;13.07;;;;;;;;;;5015479;28;20448;-67
2023/05/14 04:36:24;;;;;;;13.20;12.00;;;;;;;;;;5015008;28;20485;-68
2023/05/14 04:38:52;;;;;;;14.30;13.00;;;;;;;;;;5015597;28;20469;-67
2023/05/14 04:41:19;;;;;;;14.27;12.93;;;;;;;;;;5014923;28;20448;-68
2023/05/14 04:43:47;;;;;;;15.67;13.30;;;;;;;;;;5015205;28;20512;-67
2023/05/14 04:46:14;;;;;;;14.70;13.23;;;;;;;;;;5015131;28;20445;-67
2023/05/14 04:48:43;;;;;;;14.77;13.47;;;;;;;;;;5015107;28;20447;-68
2023/05/14 04:51:10;;;;;;;14.57;13.20;;;;;;;;;;5014934;28;20455;-68
2023/05/14 04:53:37;;;;;;;14.90;13.40;;;;;;;;;;5014571;28;20456;-68
2023/05/14 04:56:05;;;;;;;13.87;12.60;;;;;;;;;;5014459;28;20484;-68
2023/05/14 04:58:32;;;;;;;13.97;12.60;;;;;;;;;;5014937;28;20525;-68
2023/05/14 05:01:00;;;;;;;14.70;11.63;;;;;;;;;;5014787;28;20451;-69
2023/05/14 05:03:27;;;;;;;13.60;12.40;;;;;;;;;;5014349;28;20452;-67
2023/05/14 05:05:56;;;;;;;12.50;11.40;;;;;;;;;;5014323;28;20463;-67
2023/05/14 05:08:23;;;;;;;13.80;11.23;;;;;;;;;;5014721;28;20454;-67
2023/05/14 05:10:50;;;;;;;16.37;11.57;;;;;;;;;;5014538;28;20451;-67
2023/05/14 05:13:18;;;;;;;13.17;12.07;;;;;;;;;;5014531;28;20440;-67
2023/05/14 05:15:45;;;;;;;13.93;12.50;;;;;;;;;;5014382;28;20503;-68
2023/05/14 05:18:12;;;;;;;12.30;11.30;;;;;;;;;;5014556;28;20805;-67
2023/05/14 05:20:39;;;;;;;12.47;11.23;;;;;;;;;;5014447;28;20444;-67
2023/05/14 05:23:08;;;;;;;14.17;11.97;;;;;;;;;;5014258;28;20450;-67
2023/05/14 05:25:35;;;;;;;14.00;12.80;;;;;;;;;;5014097;28;20451;-67
2023/05/14 05:28:02;;;;;;;15.60;11.57;;;;;;;;;;5013643;28;20463;-68
2023/05/14 05:30:30;;;;;;;13.90;12.50;;;;;;;;;;5014212;28;20458;-67
2023/05/14 05:32:57;;;;;;;12.93;11.60;;;;;;;;;;5014144;28;20869;-67
2023/05/14 05:35:24;;;;;;;13.60;12.30;;;;;;;;;;5014061;28;20846;-67
2023/05/14 05:37:51;;;;;;;13.30;12.10;;;;;;;;;;5014110;28;20476;-67
2023/05/14 05:40:20;;;;;;;13.10;11.90;;;;;;;;;;5014398;28;20448;-68
2023/05/14 05:42:47;;;;;;;13.30;12.00;;;;;;;;;;5014143;28;20451;-68
2023/05/14 05:45:14;;;;;;;13.07;11.93;;;;;;;;;;5013945;28;20461;-70
2023/05/14 05:47:41;;;;;;;12.10;11.10;;;;;;;;;;5014136;28;20454;-67
2023/05/14 05:50:09;;;;;;;11.73;10.60;;;;;;;;;;5013812;28;20441;-68
2023/05/14 05:52:36;;;;;;;12.93;11.63;;;;;;;;;;5012997;28;20448;-68
2023/05/14 05:55:04;;;;;;;13.53;11.67;;;;;;;;;;5013934;28;20487;-70
2023/05/14 05:57:32;;;;;;;11.23;10.20;;;;;;;;;;5013662;28;20439;-69
2023/05/14 05:59:59;;;;;;;10.90;9.90;;;;;;;;;;5013560;28;20454;-68
2023/05/14 06:02:27;;;;;;;11.63;10.43;;;;;;;;;;5013771;28;20504;-69
2023/05/14 06:04:54;;;;;;;11.37;10.27;;;;;;;;;;5013725;28;20448;-69
2023/05/14 06:07:21;;;;;;;11.50;10.50;;;;;;;;;;5013345;28;20455;-69
2023/05/14 06:09:48;;;;;;;13.03;11.10;;;;;;;;;;5013292;28;20458;-80
2023/05/14 06:12:15;;;;;;;11.47;10.27;;;;;;;;;;5013252;28;20450;-69
2023/05/14 06:14:44;;;;;;;11.07;9.97;;;;;;;;;;5013413;28;20934;-68
2023/05/14 06:17:11;;;;;;;11.80;10.50;;;;;;;;;;5013461;28;20492;-69
2023/05/14 06:19:38;;;;;;;11.27;10.27;;;;;;;;;;5013525;28;20446;-68
2023/05/14 06:22:05;;;;;;;11.20;10.27;;;;;;;;;;5012571;28;20460;-69
2023/05/14 06:24:33;;;;;;;13.23;11.33;;;;;;;;;;5013509;28;20454;-68
2023/05/14 06:27:00;;;;;;;11.30;10.23;;;;;;;;;;5013226;28;20445;-69
2023/05/14 06:29:27;;;;;;;10.67;9.53;;;;;;;;;;5013041;28;20442;-68
2023/05/14 06:31:57;;;;;;;9.97;8.73;;;;;;;;;;5013274;28;20443;-69
2023/05/14 06:34:25;;;;;;;10.10;9.20;;;;;;;;;;5013439;28;20450;-67
2023/05/14 06:36:52;;;;;;;10.80;9.50;;;;;;;;;;5012744;28;20488;-68
2023/05/14 06:39:19;;;;;;;10.87;9.77;;;;;;;;;;5013254;28;20433;-68
2023/05/14 06:41:46;;;;;;;15.47;9.63;;;;;;;;;;5013125;28;20447;-68
2023/05/14 06:44:13;;;;;;;9.90;8.90;;;;;;;;;;5011620;28;20446;-68
2023/05/14 06:46:40;;;;;;;16.70;10.17;;;;;;;;;;5012898;28;21298;-68
2023/05/14 06:49:09;;;;;;;10.17;9.10;;;;;;;;;;5013359;28;20811;-68
2023/05/14 06:51:37;;;;;;;10.97;9.97;;;;;;;;;;5013548;28;20468;-69
2023/05/14 06:54:05;;;;;;;12.57;11.37;;;;;;;;;;5012838;28;20447;-68
2023/05/14 06:56:32;;;;;;;12.03;11.03;;;;;;;;;;5012763;28;20479;-68
2023/05/14 06:58:59;;;;;;;10.03;9.23;;;;;;;;;;5013078;28;20457;-68
2023/05/14 07:01:26;;;;;;;10.63;9.73;;;;;;;;;;5013252;28;20449;-68
2023/05/14 07:03:53;;;;;;;10.40;9.50;;;;;;;;;;5014143;28;20447;-69
2023/05/14 07:06:22;;;;;;;10.30;9.30;;;;;;;;;;5016344;28;20536;-69
2023/05/14 07:08:50;;;;;;;9.93;9.03;;;;;;;;;;5016356;28;20447;-68
2023/05/14 07:11:17;;;;;;;10.43;9.00;;;;;;;;;;5016944;28;20472;-68
2023/05/14 07:13:44;;;;;;;11.40;10.17;;;;;;;;;;5016777;28;20528;-68
2023/05/14 07:16:11;;;;;;;10.20;9.30;;;;;;;;;;5016919;28;20477;-68
2023/05/14 07:18:39;;;;;;;9.30;8.50;;;;;;;;;;5016555;28;20445;-68
2023/05/14 07:21:06;;;;;;;10.40;8.70;;;;;;;;;;5016660;28;20456;-68
2023/05/14 07:23:36;;;;;;;9.93;9.10;;;;;;;;;;5016577;28;20453;-68
2023/05/14 07:26:03;;;;;;;9.60;8.70;;;;;;;;;;5016115;28;20982;-68
2023/05/14 07:28:30;;;;;;;13.83;9.60;;;;;;;;;;5016289;28;20450;-68
2023/05/14 07:30:58;;;;;;;14.10;10.23;;;;;;;;;;5016494;28;20445;-68
2023/05/14 07:33:25;;;;;;;8.90;8.10;;;;;;;;;;5016468;28;20548;-68
2023/05/14 07:35:52;;;;;;;11.10;8.87;;;;;;;;;;5016289;28;20503;-68
2023/05/14 07:38:20;;;;;;;9.20;7.80;;;;;;;;;;5016153;28;20515;-68
2023/05/14 07:40:49;;;;;;;9.10;8.33;;;;;;;;;;5015913;28;21011;-69
2023/05/14 07:43:16;;;;;;;9.53;8.13;;;;;;;;;;5015730;28;20447;-68
2023/05/14 07:45:43;;;;;;;8.83;8.10;;;;;;;;;;5016004;28;20453;-70
2023/05/14 07:48:10;;;;;;;9.43;7.60;;;;;;;;;;5016218;28;20554;-69
2023/05/14 07:50:38;;;;;;;8.97;7.90;;;;;;;;;;5015791;28;20453;-68
2023/05/14 07:53:05;;;;;;;7.47;6.87;;;;;;;;;;5016199;28;20442;-69
2023/05/14 07:55:32;;;;;;;8.43;7.83;;;;;;;;;;5015924;28;20443;-69
2023/05/14 07:58:01;;;;;;;10.90;8.70;;;;;;;;;;5016050;28;20479;-68
2023/05/14 08:00:28;;;;;;;7.77;6.93;;;;;;;;;;5015622;28;20461;-68
2023/05/14 08:02:55;;;;;;;8.67;7.80;;;;;;;;;;5016201;28;20443;-68
2023/05/14 08:05:22;;;;;;;8.97;8.17;;;;;;;;;;5015820;28;20447;-68
2023/05/14 08:07:50;;;;;;;8.60;7.90;;;;;;;;;;5016034;28;20520;-68
2023/05/14 08:10:17;;;;;;;7.77;7.17;;;;;;;;;;5015542;28;20457;-68
2023/05/14 08:12:44;;;;;;;7.87;7.27;;;;;;;;;;5015468;28;20533;-69
2023/05/14 08:15:13;;;;;;;7.80;7.10;;;;;;;;;;5014981;28;20449;-68
2023/05/14 08:17:40;;;;;;;7.40;6.80;;;;;;;;;;5015276;28;20537;-69
2023/05/14 08:20:08;;;;;;;8.33;6.87;;;;;;;;;;5015209;28;20450;-68
2023/05/14 08:22:35;;;;;;;7.77;7.10;;;;;;;;;;5015590;28;20499;-68
2023/05/14 08:25:04;;;;;;;9.50;8.70;;;;;;;;;;5014181;28;20443;-69
2023/05/14 08:27:31;;;;;;;13.43;12.13;;;;;;;;;;5014872;28;20458;-69
2023/05/14 08:29:59;;;;;;;6.90;6.30;;;;;;;;;;5014930;28;20453;-69
2023/05/14 08:32:27;;;;;;;9.73;8.83;;;;;;;;;;5015013;28;20474;-69
2023/05/14 08:34:54;;;;;;;8.67;7.77;;;;;;;;;;5015211;28;20452;-68
2023/05/14 08:37:22;;;;;;;6.53;6.03;;;;;;;;;;5014511;28;20596;-69
2023/05/14 08:39:49;;;;;;;6.30;5.80;;;;;;;;;;5015053;28;20451;-69
2023/05/14 08:42:21;;;;;;;5.77;5.37;;;;;;;;;;5015093;28;20455;-68
2023/05/14 08:44:49;;;;;;;7.63;6.70;;;;;;;;;;5015037;28;20436;-68
2023/05/14 08:47:18;;;;;;;7.10;5.87;;;;;;;;;;5014719;28;20462;-69
2023/05/14 08:49:48;;;;;;;6.23;5.73;;;;;;;;;;5014901;28;20797;-68
2023/05/14 08:52:16;;;;;;;6.50;5.90;;;;;;;;;;5014904;28;20539;-68
2023/05/14 08:54:44;;;;;;;6.60;6.00;;;;;;;;;;5014411;28;20451;-68
2023/05/14 08:57:11;;;;;;;6.40;5.90;;;;;;;;;;5014564;28;20481;-69
2023/05/14 08:59:39;;;;;;;5.97;5.50;;;;;;;;;;5014598;28;20472;-68
2023/05/14 09:02:07;;;;;;;6.63;6.13;;;;;;;;;;5014367;28;20464;-68
2023/05/14 09:04:35;;;;;;;5.50;5.00;;;;;;;;;;5014669;28;20438;-68
2023/05/14 09:07:06;;;;;;;5.20;4.80;;;;;;;;;;5014468;28;20461;-68
2023/05/14 09:09:33;;;;;;;4.90;4.50;;;;;;;;;;5014418;28;20429;-68
2023/05/14 09:12:02;;;;;;;5.30;4.30;;;;;;;;;;5014506;28;20450;-68
2023/05/14 09:14:29;;;;;;;3.47;3.27;;;;;;;;;;5013999;28;20454;-68
2023/05/14 09:16:56;;;;;;;4.53;4.20;;;;;;;;;;5014084;28;21032;-68
2023/05/14 09:19:23;;;;;;;5.63;4.40;;;;;;;;;;5014104;28;20460;-68
2023/05/14 09:21:51;;;;;;;4.43;3.93;;;;;;;;;;5014308;28;20449;-68
2023/05/14 09:24:23;;;;;;;4.07;3.40;;;;;;;;;;5014273;28;20455;-68
2023/05/14 09:26:51;;;;;;;4.43;4.03;;;;;;;;;;5013431;28;20540;-69
2023/05/14 09:29:18;;;;;;;4.13;3.83;;;;;;;;;;5014034;28;20450;-69
2023/05/14 09:31:46;;;;;;;5.80;3.60;;;;;;;;;;5013901;28;20997;-68
2023/05/14 09:34:23;;;;;;;5.10;4.63;;;;;;;;;;5013857;28;20446;-68
2023/05/14 09:36:51;;;;;;;4.27;3.63;;;;;;;;;;5013558;28;20485;-68
2023/05/14 09:39:18;;;;;;;4.50;4.10;;;;;;;;;;5013876;28;20430;-68
2023/05/14 09:41:47;;;;;;;4.23;3.90;;;;;;;;;;5013434;28;20500;-68
2023/05/14 09:44:14;;;;;;;4.63;4.23;;;;;;;;;;5013604;28;20532;-69
2023/05/14 09:46:41;;;;;;;4.73;3.83;;;;;;;;;;5013859;28;20454;-68
2023/05/14 09:49:08;;;;;;;4.57;4.27;;;;;;;;;;5013638;28;20455;-69
2023/05/14 09:51:37;;;;;;;4.50;4.07;;;;;;;;;;5013506;28;20937;-68
2023/05/14 09:54:05;;;;;;;4.10;3.80;;;;;;;;;;5013460;28;20447;-68
2023/05/14 09:56:32;;;;;;;4.87;4.47;;;;;;;;;;5013139;28;20500;-68
2023/05/14 09:59:01;;;;;;;4.33;3.67;;;;;;;;;;5013524;28;20811;-68
2023/05/14 10:01:29;;;;;;;5.73;4.60;;;;;;;;;;5013553;28;20453;-68
2023/05/14 10:03:57;;;;;;;4.17;3.87;;;;;;;;;;5013816;28;20804;-68
2023/05/14 10:06:26;;;;;;;4.20;3.87;;;;;;;;;;5013360;28;20443;-68
2023/05/14 10:08:54;;;;;;;10.47;7.07;;;;;;;;;;5012935;28;20456;-68
2023/05/14 10:11:25;;;;;;;13.90;8.50;;;;;;;;;;5013358;28;20569;-68
2023/05/14 10:13:56;;;;;;;8.07;5.57;;;;;;;;;;5013290;28;20434;-68
2023/05/14 10:16:28;;;;;;;4.67;4.00;;;;;;;;;;5013419;28;20440;-69
2023/05/14 10:18:59;;;;;;;4.33;4.03;;;;;;;;;;5013245;28;20904;-68
2023/05/14 10:21:27;;;;;;;4.63;4.30;;;;;;;;;;5013266;28;20443;-68
2023/05/14 10:23:55;;;;;;;3.67;3.20;;;;;;;;;;5013408;28;20453;-68
2023/05/14 10:26:22;;;;;;;5.10;3.30;;;;;;;;;;5013411;28;20442;-68
2023/05/14 10:28:49;;;;;;;5.40;5.00;;;;;;;;;;5013252;28;20446;-68
2023/05/14 10:31:16;;;;;;;5.03;4.57;;;;;;;;;;5013162;28;20822;-68
2023/05/14 10:33:49;;;;;;;6.70;6.10;;;;;;;;;;5013393;28;20779;-68
2023/05/14 10:36:16;;;;;;;3.33;3.03;;;;;;;;;;5013302;28;20793;-68
2023/05/14 10:38:44;;;;;;;3.67;3.37;;;;;;;;;;5015843;28;20530;-68
2023/05/14 10:41:11;;;;;;;3.30;3.10;;;;;;;;;;5017174;28;20549;-69
2023/05/14 10:43:40;;;;;;;3.00;2.80;;;;;;;;;;5017262;28;20435;-68
2023/05/14 10:46:08;;;;;;;3.47;2.90;;;;;;;;;;5017163;28;20916;-68
2023/05/14 10:48:35;;;;;;;3.37;3.07;;;;;;;;;;5017552;28;20457;-68
2023/05/14 10:51:04;;;;;;;5.83;4.77;;;;;;;;;;5017146;28;20541;-68
2023/05/14 10:53:32;;;;;;;5.00;3.70;;;;;;;;;;5017215;28;20447;-68
2023/05/14 10:56:03;;;;;;;2.70;2.50;;;;;;;;;;5017153;28;20446;-68
2023/05/14 10:58:32;;;;;;;4.07;3.70;;;;;;;;;;5017422;28;20475;-68
2023/05/14 11:01:00;;;;;;;3.40;3.17;;;;;;;;;;5017025;28;20534;-68
2023/05/14 11:03:30;;;;;;;4.70;3.10;;;;;;;;;;5016989;28;20845;-68
2023/05/14 11:05:57;;;;;;;3.33;3.13;;;;;;;;;;5016897;28;20443;-68
2023/05/14 11:08:27;;;;;;;4.90;4.40;;;;;;;;;;5016481;28;20553;-68
2023/05/14 11:10:55;;;;;;;9.10;8.30;;;;;;;;;;5016408;28;20439;-69
2023/05/14 11:13:22;;;;;;;4.40;4.10;;;;;;;;;;5016802;28;20450;-68
2023/05/14 11:15:50;;;;;;;3.80;3.53;;;;;;;;;;5016449;28;20458;-69
2023/05/14 11:18:27;;;;;;;3.30;3.10;;;;;;;;;;5016390;28;20996;-68
2023/05/14 11:20:54;;;;;;;3.73;3.50;;;;;;;;;;5016755;28;20438;-68
2023/05/14 11:23:23;;;;;;;3.60;3.30;;;;;;;;;;5016629;28;20490;-68
2023/05/14 11:25:52;;;;;;;3.47;3.27;;;;;;;;;;5016616;28;20480;-68
2023/05/14 11:28:20;;;;;;;3.90;3.50;;;;;;;;;;5016150;28;20447;-68
2023/05/14 11:30:48;;;;;;;8.23;6.53;;;;;;;;;;5016884;28;20486;-68
2023/05/14 11:33:15;;;;;;;4.70;4.30;;;;;;;;;;5016014;28;20454;-68
2023/05/14 11:35:44;;;;;;;4.33;4.03;;;;;;;;;;5016107;28;20443;-68
2023/05/14 11:38:14;;;;;;;3.90;3.60;;;;;;;;;;5016093;28;20549;-68
2023/05/14 11:40:41;;;;;;;4.73;4.33;;;;;;;;;;5016022;28;20436;-68
2023/05/14 11:43:10;;;;;;;4.43;4.13;;;;;;;;;;5015854;28;20937;-67
2023/05/14 11:45:37;;;;;;;5.70;3.70;;;;;;;;;;5016291;28;20458;-68
2023/05/14 11:48:13;;;;;;;3.90;3.70;;;;;;;;;;5015838;28;20454;-68
2023/05/14 11:50:40;;;;;;;4.70;4.30;;;;;;;;;;5015785;28;20905;-68
2023/05/14 11:53:08;;;;;;;4.17;3.87;;;;;;;;;;5015666;28;20972;-69
2023/05/14 11:55:35;;;;;;;6.50;3.90;;;;;;;;;;5016341;28;20447;-68
2023/05/14 11:58:03;;;;;;;4.60;4.20;;;;;;;;;;5015624;28;20483;-68
2023/05/14 12:00:32;;;;;;;4.50;4.10;;;;;;;;;;5015477;28;20813;-68
2023/05/14 12:03:00;;;;;;;4.77;4.23;;;;;;;;;;5015516;28;20476;-68
2023/05/14 12:05:27;;;;;;;4.20;3.90;;;;;;;;;;5016135;28;20806;-67
2023/05/14 12:07:54;;;;;;;4.47;4.07;;;;;;;;;;5015334;28;20487;-68
2023/05/14 12:10:22;;;;;;;5.93;4.20;;;;;;;;;;5015877;28;20449;-68
2023/05/14 12:12:49;;;;;;;4.77;4.23;;;;;;;;;;5014913;28;20454;-68
2023/05/14 12:15:17;;;;;;;4.23;3.93;;;;;;;;;;5015792;28;20447;-68
2023/05/14 12:17:50;;;;;;;6.67;4.20;;;;;;;;;;5015626;28;20490;-68
2023/05/14 12:20:17;;;;;;;4.60;3.90;;;;;;;;;;5015685;28;20510;-68
2023/05/14 12:22:45;;;;;;;9.60;4.80;;;;;;;;;;5015030;28;20440;-69
2023/05/14 12:25:13;;;;;;;5.13;4.63;;;;;;;;;;5015229;28;20954;-68
2023/05/14 12:27:40;;;;;;;4.57;4.17;;;;;;;;;;5015430;28;20493;-68
2023/05/14 12:30:08;;;;;;;4.00;3.70;;;;;;;;;;5015200;28;20462;-68
2023/05/14 12:32:36;;;;;;;4.50;4.10;;;;;;;;;;5015009;28;20447;-68
2023/05/14 12:35:04;;;;;;;4.47;4.07;;;;;;;;;;5014800;28;20450;-68
2023/05/14 12:37:32;;;;;;;4.70;4.40;;;;;;;;;;5014392;28;20495;-68
2023/05/14 12:39:59;;;;;;;6.73;6.23;;;;;;;;;;5015086;28;20451;-68
2023/05/14 12:42:26;;;;;;;7.90;7.20;;;;;;;;;;5014848;28;20450;-68
2023/05/14 12:44:53;;;;;;;4.40;4.00;;;;;;;;;;5014681;28;20456;-68
2023/05/14 12:47:21;;;;;;;4.73;4.33;;;;;;;;;;5015157;28;20440;-68
2023/05/14 12:49:48;;;;;;;4.53;4.23;;;;;;;;;;5015015;28;20548;-68
2023/05/14 12:52:16;;;;;;;4.83;4.43;;;;;;;;;;5014671;28;20792;-69
2023/05/14 12:54:44;;;;;;;4.17;3.83;;;;;;;;;;5014631;28;20450;-68
2023/05/14 12:57:11;;;;;;;4.43;4.03;;;;;;;;;;5014922;28;20446;-67
2023/05/14 12:59:38;;;;;;;4.67;4.17;;;;;;;;;;5014634;28;20490;-68
2023/05/14 13:02:05;;;;;;;3.40;3.20;;;;;;;;;;5014393;28;20447;-68
2023/05/14 13:04:32;;;;;;;3.90;3.60;;;;;;;;;;5013852;28;20530;-68
2023/05/14 13:06:59;;;;;;;4.13;3.63;;;;;;;;;;5014082;28;20523;-68
2023/05/14 13:09:28;;;;;;;3.97;3.73;;;;;;;;;;5014090;28;20449;-68
2023/05/14 13:11:56;;;;;;;3.87;3.57;;;;;;;;;;5014583;28;20914;-68
2023/05/14 13:14:23;;;;;;;4.70;4.30;;;;;;;;;;5014010;28;20527;-68
2023/05/14 13:16:50;;;;;;;5.33;4.53;;;;;;;;;;5014336;28;20466;-68
2023/05/14 13:19:17;;;;;;;3.97;3.67;;;;;;;;;;5013915;28;20484;-68
2023/05/14 13:21:44;;;;;;;4.70;4.20;;;;;;;;;;5014342;28;20450;-68
2023/05/14 13:24:11;;;;;;;2.80;2.70;;;;;;;;;;5013945;28;20496;-67
2023/05/14 13:26:40;;;;;;;3.60;3.40;;;;;;;;;;5014408;28;20445;-68
2023/05/14 13:29:07;;;;;;;3.63;3.33;;;;;;;;;;5013933;28;20453;-67
2023/05/14 13:31:34;;;;;;;5.87;4.00;;;;;;;;;;5014042;28;20789;-67
2023/05/14 13:34:02;;;;;;;3.80;3.53;;;;;;;;;;5013779;28;20447;-68
2023/05/14 13:36:29;;;;;;;4.40;3.70;;;;;;;;;;5013908;28;20454;-68
2023/05/14 13:38:57;;;;;;;4.17;3.87;;;;;;;;;;5013247;28;20495;-68
2023/05/14 13:41:24;;;;;;;4.47;3.87;;;;;;;;;;5013967;28;20456;-68
2023/05/14 13:43:53;;;;;;;4.00;3.77;;;;;;;;;;5014004;28;20505;-68
2023/05/14 13:46:20;;;;;;;5.40;4.37;;;;;;;;;;5013657;28;20440;-67
2023/05/14 13:48:47;;;;;;;6.60;4.20;;;;;;;;;;5013765;28;20452;-68
2023/05/14 13:51:14;;;;;;;4.50;4.10;;;;;;;;;;5013564;28;20445;-68
2023/05/14 13:53:41;;;;;;;5.10;3.53;;;;;;;;;;5013379;28;20450;-68
2023/05/14 13:56:08;;;;;;;5.00;3.60;;;;;;;;;;5014122;28;20877;-67
2023/05/14 13:58:36;;;;;;;8.50;4.27;;;;;;;;;;5013249;28;20487;-68
2023/05/14 14:01:04;;;;;;;3.80;3.50;;;;;;;;;;5013472;28;20949;-67
2023/05/14 14:03:31;;;;;;;4.27;3.97;;;;;;;;;;5013628;28;20520;-68
2023/05/14 14:05:59;;;;;;;4.50;4.03;;;;;;;;;;5013768;28;20439;-68
2023/05/14 14:08:26;;;;;;;4.30;3.70;;;;;;;;;;5013648;28;20456;-68
2023/05/14 14:10:54;;;;;;;4.70;4.30;;;;;;;;;;5012479;28;20511;-68
2023/05/14 14:13:21;;;;;;;4.57;4.17;;;;;;;;;;5012857;28;20445;-68
2023/05/14 14:15:48;;;;;;;4.50;3.67;;;;;;;;;;5013472;28;21012;-68
2023/05/14 14:18:17;;;;;;;4.47;4.03;;;;;;;;;;5013726;28;20478;-67
2023/05/14 14:20:44;;;;;;;4.53;4.13;;;;;;;;;;5013503;28;20467;-67
2023/05/14 14:23:11;;;;;;;3.97;3.67;;;;;;;;;;5013188;28;20448;-67
2023/05/14 14:25:38;;;;;;;3.47;3.27;;;;;;;;;;5013560;28;20599;-68
2023/05/14 14:28:06;;;;;;;44.67;39.93;;;;;;;;;;5013563;28;20445;-67
2023/05/14 14:30:33;;;;;;;21.93;19.50;;;;;;;;;;5013085;28;20443;-67
2023/05/14 14:33:00;;;;;;;9.73;6.23;;;;;;;;;;5012994;28;20446;-68
2023/05/14 14:35:29;;;;;;;24.23;20.23;;;;;;;;;;5012711;28;20459;-67